Time;durP1;ratioP1;P1;durP2;ratioP2;P2;SDS_P1;SDS_P2;PMS_P1;PMS_P2;Temp;Humidity;BMP_temperature;BMP_pressure;BME280_temperature;BME280_humidity;BME280_pressure;Samples;Min_cycle;Max_cycle;Signal;HPM_P1;HPM_P2
2023/12/16 00:00:01;;;;;;;10.05;8.15;;;;;;;;;;5114436;28;20020;-57
2023/12/16 00:02:27;;;;;;;9.52;7.25;;;;;;;;;;5114908;28;20031;-58
2023/12/16 00:04:53;;;;;;;12.15;7.93;;;;;;;;;;5114357;28;20095;-57
2023/12/16 00:07:19;;;;;;;8.57;7.10;;;;;;;;;;5114271;28;20114;-58
2023/12/16 00:09:44;;;;;;;8.43;6.93;;;;;;;;;;5115066;28;20030;-57
2023/12/16 00:12:10;;;;;;;9.48;7.10;;;;;;;;;;5114341;28;20024;-59
2023/12/16 00:14:37;;;;;;;12.15;7.10;;;;;;;;;;5114271;28;20030;-59
2023/12/16 00:17:03;;;;;;;10.63;7.25;;;;;;;;;;5114225;28;20057;-57
2023/12/16 00:19:29;;;;;;;8.05;6.40;;;;;;;;;;5114197;28;20415;-59
2023/12/16 00:21:55;;;;;;;7.95;6.40;;;;;;;;;;5114700;28;20076;-58
2023/12/16 00:24:21;;;;;;;7.20;6.07;;;;;;;;;;5114418;28;20024;-59
2023/12/16 00:26:47;;;;;;;10.50;7.43;;;;;;;;;;5114591;28;20411;-58
2023/12/16 00:29:13;;;;;;;12.10;6.70;;;;;;;;;;5114353;28;20458;-58
2023/12/16 00:31:39;;;;;;;8.73;6.88;;;;;;;;;;5114783;28;20030;-57
2023/12/16 00:34:05;;;;;;;8.55;7.43;;;;;;;;;;5114520;28;20031;-58
2023/12/16 00:36:31;;;;;;;9.27;7.85;;;;;;;;;;5114175;28;20092;-58
2023/12/16 00:38:57;;;;;;;11.05;7.70;;;;;;;;;;5113930;28;20027;-58
2023/12/16 00:41:23;;;;;;;8.55;6.85;;;;;;;;;;5114218;28;20469;-58
2023/12/16 00:43:49;;;;;;;9.93;7.45;;;;;;;;;;5113836;28;20028;-56
2023/12/16 00:46:15;;;;;;;9.52;7.43;;;;;;;;;;5114333;28;20023;-59
2023/12/16 00:48:41;;;;;;;8.40;6.72;;;;;;;;;;5115229;28;20031;-59
2023/12/16 00:51:07;;;;;;;11.77;8.85;;;;;;;;;;5118419;28;20032;-58
2023/12/16 00:53:33;;;;;;;9.73;7.82;;;;;;;;;;5118080;28;20103;-56
2023/12/16 00:55:59;;;;;;;9.10;7.13;;;;;;;;;;5118243;28;20043;-58
2023/12/16 00:58:25;;;;;;;7.28;6.57;;;;;;;;;;5117965;28;20110;-54
2023/12/16 01:00:51;;;;;;;8.50;7.07;;;;;;;;;;5118421;28;20099;-57
2023/12/16 01:03:17;;;;;;;10.15;7.00;;;;;;;;;;5117518;28;20495;-57
2023/12/16 01:05:43;;;;;;;11.35;7.85;;;;;;;;;;5117838;28;20028;-59
2023/12/16 01:08:09;;;;;;;8.65;6.28;;;;;;;;;;5118301;28;20038;-58
2023/12/16 01:10:35;;;;;;;11.90;7.55;;;;;;;;;;5118313;28;20084;-58
2023/12/16 01:13:01;;;;;;;9.43;7.47;;;;;;;;;;5118251;28;20031;-58
2023/12/16 01:15:27;;;;;;;10.13;7.90;;;;;;;;;;5117683;28;20052;-59
2023/12/16 01:17:53;;;;;;;10.10;7.38;;;;;;;;;;5117802;28;20034;-57
2023/12/16 01:20:19;;;;;;;7.63;6.68;;;;;;;;;;5117498;28;20024;-58
2023/12/16 01:22:45;;;;;;;8.40;7.40;;;;;;;;;;5117513;28;20028;-58
2023/12/16 01:25:11;;;;;;;9.55;6.10;;;;;;;;;;5117497;28;20361;-58
2023/12/16 01:27:37;;;;;;;8.35;6.32;;;;;;;;;;5117621;28;20533;-57
2023/12/16 01:30:03;;;;;;;8.50;7.15;;;;;;;;;;5117420;28;20076;-57
2023/12/16 01:32:29;;;;;;;10.07;7.88;;;;;;;;;;5117521;28;20118;-58
2023/12/16 01:34:56;;;;;;;8.68;6.93;;;;;;;;;;5117258;28;20486;-58
2023/12/16 01:37:22;;;;;;;9.90;7.25;;;;;;;;;;5117298;28;20035;-58
2023/12/16 01:39:48;;;;;;;7.60;6.28;;;;;;;;;;5117241;28;20027;-57
2023/12/16 01:42:14;;;;;;;7.10;6.40;;;;;;;;;;5117677;28;20027;-57
2023/12/16 01:44:40;;;;;;;9.68;6.32;;;;;;;;;;5116829;28;20030;-58
2023/12/16 01:47:06;;;;;;;8.13;6.97;;;;;;;;;;5117275;28;20126;-58
2023/12/16 01:49:32;;;;;;;8.63;7.05;;;;;;;;;;5117043;28;20049;-58
2023/12/16 01:51:58;;;;;;;7.00;5.93;;;;;;;;;;5116897;28;20085;-56
2023/12/16 01:54:24;;;;;;;8.05;6.57;;;;;;;;;;5116945;28;20023;-58
2023/12/16 01:56:56;;;;;;;8.25;6.55;;;;;;;;;;5116875;28;20079;-59
2023/12/16 01:59:23;;;;;;;10.00;6.22;;;;;;;;;;5116897;28;20035;-58
2023/12/16 02:01:49;;;;;;;7.22;6.30;;;;;;;;;;5116768;28;20028;-58
2023/12/16 02:04:15;;;;;;;7.88;6.07;;;;;;;;;;5116762;28;20152;-59
2023/12/16 02:06:41;;;;;;;7.95;6.68;;;;;;;;;;5116662;28;20558;-56
2023/12/16 02:09:07;;;;;;;7.72;6.53;;;;;;;;;;5117178;28;20045;-58
2023/12/16 02:11:33;;;;;;;8.13;6.68;;;;;;;;;;5116489;28;20027;-58
2023/12/16 02:13:59;;;;;;;8.20;6.82;;;;;;;;;;5116703;28;20031;-57
2023/12/16 02:16:25;;;;;;;9.40;7.10;;;;;;;;;;5116181;28;20114;-58
2023/12/16 02:18:51;;;;;;;9.77;6.50;;;;;;;;;;5116497;28;20038;-58
2023/12/16 02:21:17;;;;;;;9.30;6.82;;;;;;;;;;5116397;28;20527;-58
2023/12/16 02:23:43;;;;;;;6.57;5.85;;;;;;;;;;5116360;28;20020;-58
2023/12/16 02:26:09;;;;;;;6.35;5.55;;;;;;;;;;5116289;28;20084;-58
2023/12/16 02:28:38;;;;;;;7.45;6.68;;;;;;;;;;5116492;28;20370;-58
2023/12/16 02:31:04;;;;;;;7.90;6.45;;;;;;;;;;5115877;28;20023;-58
2023/12/16 02:33:30;;;;;;;6.53;5.72;;;;;;;;;;5116035;28;20373;-57
2023/12/16 02:35:56;;;;;;;7.15;6.18;;;;;;;;;;5116877;28;20068;-58
2023/12/16 02:38:22;;;;;;;6.72;6.03;;;;;;;;;;5116429;28;20370;-58
2023/12/16 02:40:48;;;;;;;7.38;6.22;;;;;;;;;;5116059;28;20024;-56
2023/12/16 02:43:14;;;;;;;6.82;5.80;;;;;;;;;;5115908;28;20118;-58
2023/12/16 02:45:40;;;;;;;7.18;5.32;;;;;;;;;;5115745;28;20112;-59
2023/12/16 02:48:06;;;;;;;5.85;5.25;;;;;;;;;;5116391;28;20042;-57
2023/12/16 02:50:32;;;;;;;5.90;5.28;;;;;;;;;;5115631;28;20055;-57
2023/12/16 02:52:59;;;;;;;8.45;5.75;;;;;;;;;;5116083;28;20024;-58
2023/12/16 02:55:28;;;;;;;7.85;5.45;;;;;;;;;;5115905;28;20036;-57
2023/12/16 02:57:54;;;;;;;6.88;5.93;;;;;;;;;;5115948;28;20030;-57
2023/12/16 03:00:20;;;;;;;6.85;5.93;;;;;;;;;;5116422;28;20430;-57
2023/12/16 03:02:47;;;;;;;9.70;5.75;;;;;;;;;;5115550;28;20050;-57
2023/12/16 03:05:13;;;;;;;7.85;5.68;;;;;;;;;;5115473;28;20100;-58
2023/12/16 03:07:39;;;;;;;7.80;5.43;;;;;;;;;;5115392;28;20024;-57
2023/12/16 03:10:05;;;;;;;6.40;5.40;;;;;;;;;;5115991;28;20097;-58
2023/12/16 03:12:31;;;;;;;5.63;4.82;;;;;;;;;;5114718;28;20110;-58
2023/12/16 03:14:57;;;;;;;6.60;5.60;;;;;;;;;;5115386;28;20429;-58
2023/12/16 03:17:23;;;;;;;6.03;5.30;;;;;;;;;;5115681;28;20032;-60
2023/12/16 03:19:49;;;;;;;7.35;6.15;;;;;;;;;;5115572;28;20019;-58
2023/12/16 03:22:15;;;;;;;11.27;7.82;;;;;;;;;;5115738;28;20015;-58
2023/12/16 03:24:41;;;;;;;5.68;4.40;;;;;;;;;;5115430;28;20465;-58
2023/12/16 03:27:07;;;;;;;7.95;6.43;;;;;;;;;;5115622;28;20046;-58
2023/12/16 03:29:33;;;;;;;6.85;5.82;;;;;;;;;;5114746;28;20031;-56
2023/12/16 03:31:59;;;;;;;9.45;6.70;;;;;;;;;;5115570;28;20164;-58
2023/12/16 03:34:25;;;;;;;8.45;6.30;;;;;;;;;;5114636;28;20385;-56
2023/12/16 03:36:51;;;;;;;9.13;6.63;;;;;;;;;;5115161;28;20085;-58
2023/12/16 03:39:16;;;;;;;8.77;6.72;;;;;;;;;;5115463;28;20569;-55
2023/12/16 03:41:42;;;;;;;9.10;6.90;;;;;;;;;;5114815;28;20024;-57
2023/12/16 03:44:08;;;;;;;7.28;6.57;;;;;;;;;;5115309;28;20027;-56
2023/12/16 03:46:34;;;;;;;8.30;6.05;;;;;;;;;;5114531;28;20370;-56
2023/12/16 03:49:00;;;;;;;11.98;6.15;;;;;;;;;;5115264;28;20368;-57
2023/12/16 03:51:26;;;;;;;7.35;6.30;;;;;;;;;;5114611;28;20027;-52
2023/12/16 03:53:52;;;;;;;8.38;6.10;;;;;;;;;;5114594;28;20081;-56
2023/12/16 03:56:18;;;;;;;9.65;5.28;;;;;;;;;;5114885;28;20419;-57
2023/12/16 03:58:44;;;;;;;9.25;6.15;;;;;;;;;;5115045;28;20045;-56
2023/12/16 04:01:13;;;;;;;5.80;4.93;;;;;;;;;;5114824;28;20094;-58
2023/12/16 04:03:40;;;;;;;7.40;6.22;;;;;;;;;;5114673;28;20458;-57
2023/12/16 04:06:10;;;;;;;6.82;6.07;;;;;;;;;;5114439;28;20110;-53
2023/12/16 04:08:36;;;;;;;8.10;6.20;;;;;;;;;;5114923;28;20028;-57
2023/12/16 04:11:02;;;;;;;7.63;6.10;;;;;;;;;;5114443;28;20020;-56
2023/12/16 04:13:28;;;;;;;6.88;6.18;;;;;;;;;;5114228;28;20020;-54
2023/12/16 04:15:54;;;;;;;8.85;6.00;;;;;;;;;;5114606;28;20072;-57
2023/12/16 04:18:20;;;;;;;9.45;6.05;;;;;;;;;;5114650;28;20051;-58
2023/12/16 04:20:45;;;;;;;8.18;6.95;;;;;;;;;;5114719;28;20024;-58
2023/12/16 04:23:11;;;;;;;7.13;6.32;;;;;;;;;;5114120;28;20031;-58
2023/12/16 04:25:37;;;;;;;7.45;5.57;;;;;;;;;;5114413;28;20031;-58
2023/12/16 04:28:03;;;;;;;7.68;4.85;;;;;;;;;;5114697;28;20479;-57
2023/12/16 04:30:29;;;;;;;6.97;5.63;;;;;;;;;;5114116;28;20035;-58
2023/12/16 04:32:55;;;;;;;7.78;5.32;;;;;;;;;;5114903;28;20350;-57
2023/12/16 04:35:21;;;;;;;7.78;6.38;;;;;;;;;;5114128;28;20319;-58
2023/12/16 04:37:47;;;;;;;7.60;6.13;;;;;;;;;;5114673;28;20165;-58
2023/12/16 04:40:13;;;;;;;7.35;5.38;;;;;;;;;;5113700;28;20034;-57
2023/12/16 04:42:41;;;;;;;8.15;6.05;;;;;;;;;;5113988;28;20086;-55
2023/12/16 04:45:07;;;;;;;6.72;6.03;;;;;;;;;;5113970;28;20028;-56
2023/12/16 04:47:33;;;;;;;8.18;4.80;;;;;;;;;;5113897;28;20035;-58
2023/12/16 04:49:59;;;;;;;6.90;5.88;;;;;;;;;;5114244;28;20031;-55
2023/12/16 04:52:25;;;;;;;7.88;5.80;;;;;;;;;;5113561;28;20030;-58
2023/12/16 04:54:51;;;;;;;6.93;5.88;;;;;;;;;;5113881;28;20026;-57
2023/12/16 04:57:17;;;;;;;6.22;5.55;;;;;;;;;;5113438;28;20056;-58
2023/12/16 04:59:43;;;;;;;6.07;5.40;;;;;;;;;;5113547;28;20480;-58
2023/12/16 05:02:09;;;;;;;8.63;6.15;;;;;;;;;;5113899;28;20015;-58
2023/12/16 05:04:35;;;;;;;7.05;5.72;;;;;;;;;;5113883;28;20020;-57
2023/12/16 05:07:01;;;;;;;12.35;5.47;;;;;;;;;;5114112;28;20020;-57
2023/12/16 05:09:27;;;;;;;6.85;5.93;;;;;;;;;;5113708;28;20050;-58
2023/12/16 05:11:53;;;;;;;6.22;4.80;;;;;;;;;;5114082;28;20446;-56
2023/12/16 05:14:19;;;;;;;6.32;5.25;;;;;;;;;;5113730;28;20027;-52
2023/12/16 05:16:45;;;;;;;6.60;5.65;;;;;;;;;;5113717;28;20027;-57
2023/12/16 05:19:11;;;;;;;8.23;6.82;;;;;;;;;;5114560;28;20031;-58
2023/12/16 05:21:37;;;;;;;8.13;5.18;;;;;;;;;;5113655;28;20488;-57
2023/12/16 05:24:03;;;;;;;9.02;6.50;;;;;;;;;;5114175;28;20511;-58
2023/12/16 05:26:29;;;;;;;8.60;5.55;;;;;;;;;;5113288;28;20104;-58
2023/12/16 05:28:55;;;;;;;6.90;5.20;;;;;;;;;;5113311;28;20063;-57
2023/12/16 05:31:20;;;;;;;8.85;5.30;;;;;;;;;;5113513;28;20027;-57
2023/12/16 05:33:46;;;;;;;5.80;4.65;;;;;;;;;;5113854;28;20066;-56
2023/12/16 05:36:12;;;;;;;9.15;5.82;;;;;;;;;;5116655;28;20031;-58
2023/12/16 05:38:38;;;;;;;7.75;5.75;;;;;;;;;;5117789;28;20028;-58
2023/12/16 05:41:05;;;;;;;5.80;4.88;;;;;;;;;;5117744;28;20430;-58
2023/12/16 05:43:31;;;;;;;6.78;6.05;;;;;;;;;;5117161;28;20465;-58
2023/12/16 05:45:57;;;;;;;6.57;5.30;;;;;;;;;;5117076;28;20034;-57
2023/12/16 05:48:22;;;;;;;7.60;5.05;;;;;;;;;;5117783;28;20028;-58
2023/12/16 05:50:48;;;;;;;7.32;5.40;;;;;;;;;;5116988;28;20031;-57
2023/12/16 05:53:14;;;;;;;6.70;5.47;;;;;;;;;;5116969;28;20420;-57
2023/12/16 05:55:40;;;;;;;7.45;4.70;;;;;;;;;;5116376;28;20047;-58
2023/12/16 05:58:06;;;;;;;9.57;6.82;;;;;;;;;;5117123;28;20027;-58
2023/12/16 06:00:32;;;;;;;8.65;6.18;;;;;;;;;;5116559;28;20032;-57
2023/12/16 06:02:59;;;;;;;6.32;5.50;;;;;;;;;;5117374;28;20027;-57
2023/12/16 06:05:25;;;;;;;9.45;6.20;;;;;;;;;;5116572;28;20027;-59
2023/12/16 06:07:50;;;;;;;7.78;5.93;;;;;;;;;;5117270;28;20027;-58
2023/12/16 06:10:16;;;;;;;7.30;4.90;;;;;;;;;;5116756;28;20107;-57
2023/12/16 06:12:42;;;;;;;8.15;5.85;;;;;;;;;;5116944;28;20047;-58
2023/12/16 06:15:08;;;;;;;8.15;5.88;;;;;;;;;;5116677;28;20446;-58
2023/12/16 06:17:34;;;;;;;8.00;5.78;;;;;;;;;;5117200;28;20412;-58
2023/12/16 06:20:00;;;;;;;6.40;4.95;;;;;;;;;;5117040;28;20019;-57
2023/12/16 06:22:26;;;;;;;5.18;4.25;;;;;;;;;;5116353;28;20393;-58
2023/12/16 06:24:52;;;;;;;5.80;4.63;;;;;;;;;;5098168;28;20032;-58
2023/12/16 06:27:18;;;;;;;7.90;5.35;;;;;;;;;;5116899;28;20023;-58
2023/12/16 06:29:44;;;;;;;6.35;5.05;;;;;;;;;;5116443;28;20035;-56
2023/12/16 06:32:10;;;;;;;5.57;4.45;;;;;;;;;;5116271;28;20030;-54
2023/12/16 06:34:36;;;;;;;8.88;5.68;;;;;;;;;;5115738;28;20031;-56
2023/12/16 06:37:02;;;;;;;6.90;5.47;;;;;;;;;;5116440;28;20028;-55
2023/12/16 06:39:28;;;;;;;7.78;5.63;;;;;;;;;;5116195;28;20462;-54
2023/12/16 06:41:53;;;;;;;8.52;5.55;;;;;;;;;;5115878;28;20061;-58
2023/12/16 06:44:19;;;;;;;7.20;4.70;;;;;;;;;;5116818;28;20023;-56
2023/12/16 06:46:45;;;;;;;6.47;4.95;;;;;;;;;;5114699;28;20024;-58
2023/12/16 06:49:11;;;;;;;6.28;5.32;;;;;;;;;;5116580;28;20503;-56
2023/12/16 06:51:38;;;;;;;6.75;5.35;;;;;;;;;;5115887;28;20033;-58
2023/12/16 06:54:04;;;;;;;7.38;4.93;;;;;;;;;;5115769;28;20453;-55
2023/12/16 06:56:30;;;;;;;6.80;5.85;;;;;;;;;;5116195;28;20054;-56
2023/12/16 06:58:56;;;;;;;6.53;5.32;;;;;;;;;;5115991;28;20118;-57
2023/12/16 07:01:23;;;;;;;8.20;5.68;;;;;;;;;;5116024;28;20051;-58
2023/12/16 07:03:49;;;;;;;6.20;5.10;;;;;;;;;;5114566;28;20031;-58
2023/12/16 07:06:19;;;;;;;8.43;5.28;;;;;;;;;;5097900;28;20020;-59
2023/12/16 07:08:45;;;;;;;8.30;6.68;;;;;;;;;;5115631;28;20020;-56
2023/12/16 07:11:12;;;;;;;5.72;4.65;;;;;;;;;;5115973;28;20093;-58
2023/12/16 07:13:38;;;;;;;7.32;6.03;;;;;;;;;;5115401;28;20461;-56
2023/12/16 07:16:04;;;;;;;7.00;5.72;;;;;;;;;;5115603;28;20114;-59
2023/12/16 07:18:30;;;;;;;9.60;6.70;;;;;;;;;;5116182;28;20119;-59
2023/12/16 07:21:06;;;;;;;8.50;5.95;;;;;;;;;;5114994;28;20072;-58
2023/12/16 07:23:33;;;;;;;7.75;6.32;;;;;;;;;;5115532;28;20028;-58
2023/12/16 07:26:00;;;;;;;7.10;6.38;;;;;;;;;;5115165;28;20063;-57
2023/12/16 07:28:26;;;;;;;8.20;6.38;;;;;;;;;;5115238;28;20453;-58
2023/12/16 07:30:52;;;;;;;10.63;7.53;;;;;;;;;;5114656;28;20034;-56
2023/12/16 07:33:18;;;;;;;7.72;5.82;;;;;;;;;;5115034;28;20024;-57
2023/12/16 07:35:44;;;;;;;10.77;5.93;;;;;;;;;;5114958;28;20015;-57
2023/12/16 07:38:10;;;;;;;8.82;6.32;;;;;;;;;;5115054;28;20027;-58
2023/12/16 07:40:36;;;;;;;7.25;6.25;;;;;;;;;;5115231;28;20019;-58
2023/12/16 07:43:06;;;;;;;10.80;6.30;;;;;;;;;;5115071;28;20024;-55
2023/12/16 07:45:31;;;;;;;8.75;6.05;;;;;;;;;;5114610;28;20031;-56
2023/12/16 07:47:58;;;;;;;8.80;5.88;;;;;;;;;;5114904;28;20365;-58
2023/12/16 07:50:24;;;;;;;6.90;5.97;;;;;;;;;;5114611;28;20031;-54
2023/12/16 07:52:49;;;;;;;7.50;6.00;;;;;;;;;;5114737;28;20023;-56
2023/12/16 07:55:15;;;;;;;8.63;5.93;;;;;;;;;;5114579;28;20047;-56
2023/12/16 07:57:41;;;;;;;7.72;5.97;;;;;;;;;;5095717;28;20055;-56
2023/12/16 08:00:09;;;;;;;7.20;6.47;;;;;;;;;;5114515;28;20027;-56
2023/12/16 08:02:35;;;;;;;8.65;6.65;;;;;;;;;;5115022;28;20032;-56
2023/12/16 08:05:03;;;;;;;6.57;5.95;;;;;;;;;;5114408;28;20385;-56
2023/12/16 08:07:28;;;;;;;7.40;5.68;;;;;;;;;;5114987;28;20055;-57
2023/12/16 08:09:54;;;;;;;8.50;6.57;;;;;;;;;;5114703;28;20464;-56
2023/12/16 08:12:20;;;;;;;6.25;5.45;;;;;;;;;;5114410;28;20093;-55
2023/12/16 08:14:46;;;;;;;8.40;7.00;;;;;;;;;;5114201;28;20039;-56
2023/12/16 08:17:12;;;;;;;7.93;6.25;;;;;;;;;;5114175;28;20020;-55
2023/12/16 08:19:38;;;;;;;8.80;6.57;;;;;;;;;;5113808;28;20027;-57
2023/12/16 08:22:04;;;;;;;7.63;5.28;;;;;;;;;;5114681;28;20034;-56
2023/12/16 08:24:31;;;;;;;7.03;5.93;;;;;;;;;;5114897;28;20027;-56
2023/12/16 08:26:57;;;;;;;6.57;5.05;;;;;;;;;;5114147;28;20035;-56
2023/12/16 08:29:23;;;;;;;6.35;5.65;;;;;;;;;;5114532;28;20375;-56
2023/12/16 08:31:49;;;;;;;6.63;5.43;;;;;;;;;;5114042;28;20120;-56
2023/12/16 08:34:15;;;;;;;8.93;6.45;;;;;;;;;;5114668;28;20450;-57
2023/12/16 08:36:41;;;;;;;7.75;6.18;;;;;;;;;;5114302;28;20030;-57
2023/12/16 08:39:07;;;;;;;7.00;6.15;;;;;;;;;;5114126;28;20453;-57
2023/12/16 08:41:33;;;;;;;7.00;5.80;;;;;;;;;;5114009;28;20073;-57
2023/12/16 08:43:59;;;;;;;11.38;6.15;;;;;;;;;;5114093;28;20026;-57
2023/12/16 08:46:25;;;;;;;7.60;5.60;;;;;;;;;;5113829;28;20016;-58
2023/12/16 08:48:53;;;;;;;9.10;6.18;;;;;;;;;;5113938;28;20028;-57
2023/12/16 08:51:25;;;;;;;6.85;5.30;;;;;;;;;;5113863;28;20039;-57
2023/12/16 08:53:53;;;;;;;7.75;5.97;;;;;;;;;;5114061;28;20035;-58
2023/12/16 08:56:19;;;;;;;8.75;6.07;;;;;;;;;;5113992;28;20448;-57
2023/12/16 08:58:48;;;;;;;7.00;5.72;;;;;;;;;;5113835;28;20036;-57
2023/12/16 09:01:13;;;;;;;7.57;6.75;;;;;;;;;;5113803;28;20371;-57
2023/12/16 09:03:43;;;;;;;6.25;5.22;;;;;;;;;;5114395;28;20028;-57
2023/12/16 09:06:09;;;;;;;6.93;6.00;;;;;;;;;;5113530;28;20364;-57
2023/12/16 09:08:35;;;;;;;8.27;5.78;;;;;;;;;;5114152;28;20377;-59
2023/12/16 09:11:02;;;;;;;7.78;6.75;;;;;;;;;;5116458;28;20118;-57
2023/12/16 09:13:28;;;;;;;10.07;5.95;;;;;;;;;;5117768;28;20015;-57
2023/12/16 09:15:54;;;;;;;7.82;6.47;;;;;;;;;;5117899;28;20099;-57
2023/12/16 09:18:20;;;;;;;6.47;5.80;;;;;;;;;;5118065;28;20082;-58
2023/12/16 09:20:46;;;;;;;7.53;6.20;;;;;;;;;;5117674;28;20076;-58
2023/12/16 09:23:12;;;;;;;7.57;5.97;;;;;;;;;;5117762;28;20331;-58
2023/12/16 09:25:38;;;;;;;7.18;5.70;;;;;;;;;;5117905;28;20438;-57
2023/12/16 09:28:04;;;;;;;7.70;5.93;;;;;;;;;;5118016;28;20055;-57
2023/12/16 09:30:30;;;;;;;7.05;6.05;;;;;;;;;;5117149;28;20047;-56
2023/12/16 09:32:56;;;;;;;8.27;7.05;;;;;;;;;;5117491;28;20028;-58
2023/12/16 09:35:22;;;;;;;6.45;5.35;;;;;;;;;;5117036;28;20454;-60
2023/12/16 09:37:48;;;;;;;8.80;6.07;;;;;;;;;;5117748;28;20031;-58
2023/12/16 09:40:14;;;;;;;8.57;5.43;;;;;;;;;;5117218;28;20023;-56
2023/12/16 09:42:46;;;;;;;7.78;6.25;;;;;;;;;;5116891;28;20355;-57
2023/12/16 09:45:16;;;;;;;7.20;6.35;;;;;;;;;;5117165;28;20020;-58
2023/12/16 09:47:42;;;;;;;;;;;;;;;;;;5118003;28;20366;-59
2023/12/16 09:50:10;;;;;;;6.38;5.63;;;;;;;;;;5117226;28;19907;-58
2023/12/16 09:52:36;;;;;;;11.23;6.22;;;;;;;;;;5116866;28;20034;-57
2023/12/16 09:55:02;;;;;;;6.68;5.97;;;;;;;;;;5116904;28;20465;-59
2023/12/16 09:57:28;;;;;;;7.72;6.55;;;;;;;;;;5117605;28;20081;-59
2023/12/16 09:59:55;;;;;;;7.18;5.70;;;;;;;;;;5117089;28;20059;-58
2023/12/16 10:02:28;;;;;;;8.25;6.75;;;;;;;;;;5117032;28;20047;-59
2023/12/16 10:04:57;;;;;;;7.07;6.28;;;;;;;;;;5116736;28;20032;-58
2023/12/16 10:07:23;;;;;;;8.25;6.63;;;;;;;;;;5117015;28;20347;-57
2023/12/16 10:09:49;;;;;;;7.10;5.63;;;;;;;;;;5117195;28;20362;-58
2023/12/16 10:12:15;;;;;;;8.65;6.10;;;;;;;;;;5116581;28;20028;-59
2023/12/16 10:14:48;;;;;;;7.53;6.55;;;;;;;;;;5116806;28;20140;-56
2023/12/16 10:17:18;;;;;;;7.72;6.00;;;;;;;;;;5117041;28;20024;-58
2023/12/16 10:19:48;;;;;;;8.15;7.35;;;;;;;;;;5116611;28;20369;-57
2023/12/16 10:22:15;;;;;;;8.10;6.25;;;;;;;;;;5116375;28;20023;-58
2023/12/16 10:24:41;;;;;;;7.78;6.32;;;;;;;;;;5116944;28;20038;-58
2023/12/16 10:27:10;;;;;;;8.32;6.05;;;;;;;;;;5116818;28;20035;-55
2023/12/16 10:29:39;;;;;;;6.25;5.40;;;;;;;;;;5116504;28;20027;-55
2023/12/16 10:32:05;;;;;;;10.68;6.57;;;;;;;;;;5116882;28;20373;-58
2023/12/16 10:34:31;;;;;;;6.60;5.93;;;;;;;;;;5116281;28;20028;-58
2023/12/16 10:37:07;;;;;;;11.35;6.82;;;;;;;;;;5116249;28;20342;-58
2023/12/16 10:39:33;;;;;;;7.15;5.85;;;;;;;;;;5116194;28;20032;-58
2023/12/16 10:41:59;;;;;;;7.05;6.05;;;;;;;;;;5115989;28;20031;-58
2023/12/16 10:44:26;;;;;;;6.88;5.90;;;;;;;;;;5116171;28;20032;-58
2023/12/16 10:46:54;;;;;;;6.13;5.53;;;;;;;;;;5116304;28;20024;-58
2023/12/16 10:49:25;;;;;;;9.65;6.45;;;;;;;;;;5115861;28;20065;-58
2023/12/16 10:51:52;;;;;;;7.43;6.45;;;;;;;;;;5116039;28;20039;-58
2023/12/16 10:54:25;;;;;;;8.88;6.18;;;;;;;;;;5115738;28;20090;-58
2023/12/16 10:57:12;;;;;;;7.43;6.18;;;;;;;;;;5115991;28;20047;-58
2023/12/16 10:59:40;;;;;;;8.80;6.57;;;;;;;;;;5116284;28;20031;-57
2023/12/16 11:02:14;;;;;;;6.38;5.05;;;;;;;;;;5115438;28;20473;-58
2023/12/16 11:04:41;;;;;;;7.03;5.80;;;;;;;;;;5115990;28;20045;-58
2023/12/16 11:07:09;;;;;;;6.97;6.28;;;;;;;;;;5116028;28;20460;-57
2023/12/16 11:09:36;;;;;;;8.32;5.95;;;;;;;;;;5115782;28;20023;-58
2023/12/16 11:12:03;;;;;;;7.88;5.97;;;;;;;;;;5115380;28;20027;-58
2023/12/16 11:14:33;;;;;;;8.98;6.13;;;;;;;;;;5114997;28;20077;-58
2023/12/16 11:17:04;;;;;;;7.72;6.53;;;;;;;;;;5115209;28;20016;-58
2023/12/16 11:19:32;;;;;;;6.93;6.10;;;;;;;;;;5115342;28;20066;-58
2023/12/16 11:21:58;;;;;;;10.48;6.38;;;;;;;;;;5114917;28;20019;-58
2023/12/16 11:24:24;;;;;;;6.22;5.60;;;;;;;;;;5114936;28;20476;-58
2023/12/16 11:26:53;;;;;;;7.55;6.20;;;;;;;;;;5115775;28;20445;-58
2023/12/16 11:29:23;;;;;;;8.40;6.28;;;;;;;;;;5115403;28;20039;-58
2023/12/16 11:31:52;;;;;;;6.80;5.22;;;;;;;;;;5115012;28;20058;-57
2023/12/16 11:34:37;;;;;;;10.65;7.30;;;;;;;;;;5114850;28;20114;-58
2023/12/16 11:37:03;;;;;;;9.27;6.35;;;;;;;;;;5115226;28;20031;-58
2023/12/16 11:39:55;;;;;;;8.00;7.18;;;;;;;;;;5114893;28;20038;-58
2023/12/16 11:42:44;;;;;;;7.32;5.22;;;;;;;;;;5110335;28;20031;-59
2023/12/16 11:45:10;;;;;;;6.93;5.72;;;;;;;;;;5115603;28;20054;-59
2023/12/16 11:47:36;;;;;;;7.13;5.30;;;;;;;;;;5115326;28;20070;-58
2023/12/16 11:50:03;;;;;;;10.23;6.70;;;;;;;;;;5114551;28;20031;-59
2023/12/16 11:52:29;;;;;;;8.05;6.75;;;;;;;;;;5115476;28;20024;-59
2023/12/16 11:54:56;;;;;;;8.20;6.45;;;;;;;;;;5114868;28;20027;-58
2023/12/16 11:57:22;;;;;;;7.35;6.45;;;;;;;;;;5114437;28;20473;-58
2023/12/16 11:59:48;;;;;;;10.02;6.30;;;;;;;;;;5115162;28;20102;-59
2023/12/16 12:02:15;;;;;;;11.02;6.97;;;;;;;;;;5114455;28;20076;-58
2023/12/16 12:04:41;;;;;;;8.57;6.60;;;;;;;;;;5114443;28;20164;-56
2023/12/16 12:07:07;;;;;;;6.88;6.18;;;;;;;;;;5114851;28;20023;-57
2023/12/16 12:09:33;;;;;;;6.97;6.15;;;;;;;;;;5114544;28;20058;-56
2023/12/16 12:12:01;;;;;;;7.50;5.95;;;;;;;;;;5113854;28;20149;-57
2023/12/16 12:14:27;;;;;;;8.63;6.68;;;;;;;;;;5114015;28;20027;-57
2023/12/16 12:16:53;;;;;;;7.97;7.10;;;;;;;;;;5114602;28;20031;-58
2023/12/16 12:19:19;;;;;;;8.05;6.95;;;;;;;;;;5114864;28;20028;-58
2023/12/16 12:21:45;;;;;;;12.38;7.50;;;;;;;;;;5114324;28;20059;-57
2023/12/16 12:24:11;;;;;;;10.30;7.22;;;;;;;;;;5114729;28;20024;-58
2023/12/16 12:26:37;;;;;;;9.23;8.18;;;;;;;;;;5114219;28;20027;-57
2023/12/16 12:29:03;;;;;;;7.10;6.40;;;;;;;;;;5114616;28;20032;-57
2023/12/16 12:31:41;;;;;;;11.45;7.15;;;;;;;;;;5114695;28;20077;-57
2023/12/16 12:34:07;;;;;;;7.60;6.82;;;;;;;;;;5114353;28;20024;-57
2023/12/16 12:36:33;;;;;;;7.88;6.53;;;;;;;;;;5113800;28;20093;-58
2023/12/16 12:38:59;;;;;;;8.75;7.53;;;;;;;;;;5114607;28;20032;-56
2023/12/16 12:41:25;;;;;;;11.07;7.78;;;;;;;;;;5113669;28;20023;-58
2023/12/16 12:43:51;;;;;;;9.43;8.32;;;;;;;;;;5114408;28;20465;-56
2023/12/16 12:46:17;;;;;;;11.18;8.82;;;;;;;;;;5117604;28;20024;-57
2023/12/16 12:48:54;;;;;;;7.60;6.57;;;;;;;;;;5118356;28;20062;-57
2023/12/16 12:51:20;;;;;;;10.30;7.78;;;;;;;;;;5118644;28;20363;-57
2023/12/16 12:53:55;;;;;;;13.38;7.38;;;;;;;;;;5117788;28;20110;-57
2023/12/16 12:56:21;;;;;;;8.02;6.30;;;;;;;;;;5118457;28;20055;-57
2023/12/16 12:58:47;;;;;;;7.25;6.50;;;;;;;;;;5117803;28;20035;-58
2023/12/16 13:01:14;;;;;;;7.60;6.32;;;;;;;;;;5117911;28;20042;-58
2023/12/16 13:03:40;;;;;;;9.27;6.65;;;;;;;;;;5118031;28;20034;-56
2023/12/16 13:06:06;;;;;;;7.55;5.88;;;;;;;;;;5117891;28;20515;-58
2023/12/16 13:08:33;;;;;;;10.18;7.10;;;;;;;;;;5118688;28;20053;-59
2023/12/16 13:10:59;;;;;;;8.65;6.05;;;;;;;;;;5117882;28;20081;-58
2023/12/16 13:13:25;;;;;;;6.53;5.57;;;;;;;;;;5117808;28;20023;-58
2023/12/16 13:15:54;;;;;;;8.82;5.18;;;;;;;;;;5118307;28;20023;-59
2023/12/16 13:18:20;;;;;;;6.70;5.47;;;;;;;;;;5118227;28;20525;-58
2023/12/16 13:20:45;;;;;;;8.70;5.85;;;;;;;;;;5118364;28;20020;-57
2023/12/16 13:23:13;;;;;;;7.80;5.28;;;;;;;;;;5118401;28;20480;-59
2023/12/16 13:25:39;;;;;;;10.05;5.60;;;;;;;;;;5117579;28;20060;-58
2023/12/16 13:28:05;;;;;;;6.93;5.60;;;;;;;;;;5117978;28;20122;-59
2023/12/16 13:30:31;;;;;;;7.88;5.60;;;;;;;;;;5117442;28;20112;-58
2023/12/16 13:32:56;;;;;;;7.25;5.47;;;;;;;;;;5117951;28;20576;-58
2023/12/16 13:35:22;;;;;;;6.20;4.72;;;;;;;;;;5117869;28;20442;-58
2023/12/16 13:40:47;;;;;;;8.50;5.88;;;;;;;;;;5061437;28;20475;-58
2023/12/16 13:43:13;;;;;;;7.18;5.50;;;;;;;;;;5117776;28;20019;-58
2023/12/16 13:45:39;;;;;;;7.93;5.28;;;;;;;;;;5117700;28;20535;-58
2023/12/16 13:48:05;;;;;;;7.25;5.03;;;;;;;;;;5117698;28;20055;-58
2023/12/16 13:50:31;;;;;;;7.15;4.47;;;;;;;;;;5117710;28;20031;-58
2023/12/16 13:52:57;;;;;;;7.20;5.75;;;;;;;;;;5117493;28;20031;-59
2023/12/16 13:55:23;;;;;;;7.78;5.53;;;;;;;;;;5116250;28;20024;-58
2023/12/16 13:57:49;;;;;;;4.95;4.43;;;;;;;;;;5118228;28;20373;-57
2023/12/16 14:00:15;;;;;;;5.95;4.88;;;;;;;;;;5117174;28;20038;-58
2023/12/16 14:02:41;;;;;;;7.38;4.32;;;;;;;;;;5116860;28;20027;-58
2023/12/16 14:05:07;;;;;;;5.15;3.78;;;;;;;;;;5117195;28;20024;-58
2023/12/16 14:07:33;;;;;;;4.75;4.05;;;;;;;;;;5116742;28;20114;-58
2023/12/16 14:09:59;;;;;;;6.18;4.50;;;;;;;;;;5116750;28;20111;-58
2023/12/16 14:12:25;;;;;;;6.25;4.65;;;;;;;;;;5117226;28;20019;-58
2023/12/16 14:14:51;;;;;;;6.35;4.20;;;;;;;;;;5117444;28;20034;-58
2023/12/16 14:17:16;;;;;;;6.82;3.90;;;;;;;;;;5117129;28;20028;-58
2023/12/16 14:19:42;;;;;;;7.53;4.72;;;;;;;;;;5116534;28;20100;-58
2023/12/16 14:22:08;;;;;;;4.53;2.80;;;;;;;;;;5117083;28;20393;-58
2023/12/16 14:24:34;;;;;;;7.68;3.60;;;;;;;;;;5116396;28;20035;-58
2023/12/16 14:27:01;;;;;;;8.27;4.32;;;;;;;;;;5116949;28;20028;-57
2023/12/16 14:29:28;;;;;;;5.47;3.58;;;;;;;;;;5116216;28;20534;-57
2023/12/16 14:31:54;;;;;;;5.70;4.07;;;;;;;;;;5116162;28;20465;-58
2023/12/16 14:37:23;;;;;;;9.75;6.07;;;;;;;;;;5116113;28;20085;-59
2023/12/16 14:39:49;;;;;;;7.50;4.63;;;;;;;;;;5116402;28;20039;-58
2023/12/16 14:42:15;;;;;;;10.13;5.18;;;;;;;;;;5115864;28;20028;-58